»·PEaware :: N21522 KBFL-KSBA

N21522 :: KBFL-KSBA

FLIGHT INFORMATION

Flight Status: Arrived
Operator: Privately registered:
United States
More flights under this callsign
Pilot: Jeff S. (17264)
Aircraft: PIPER PA-28R-201 ARROW
(P28R)
More flights by this aircraft type
Origin: KBFL Meadows
United States
Destination: KSBA Santa Barbara Mun
United States
More flights between these airports :: More routes between these airports
Route: +
File this flight plan on PilotEdge
Remarks:
Altitude:
(Current/Filed)
10,500ft
Speed:
(Current/Filed)
0kts
Departed: 11-Jan-18 07:48 PM
Arrived: 11-Jan-18 08:28 PM
Distance/Time
Traveled:
72nm/0:40
Distance/Time
To Go:
Arrived

Flight Plot

Page will automatically refresh every two minutes.


Map Options




Map Legend


Flown Route
Filed Route
Departure Airport
Arrival Airport
Navaid (VOR, NDB)
Fix

Horizontal Profiles

Position Reports

Time Latitude Longitude Heading Altitude Ground
Speed
11-Jan-18 19:46 35.434767 -119.054256 226 495ft 0kts
11-Jan-18 19:47 35.434767 -119.054256 226 495ft 0kts
11-Jan-18 19:48 35.433588 -119.053715 124 495ft 11kts
11-Jan-18 19:49 35.431032 -119.050580 135 495ft 13kts
11-Jan-18 19:50 35.428477 -119.047488 136 495ft 12kts
11-Jan-18 19:51 35.426179 -119.044706 141 495ft 7kts
11-Jan-18 19:52 35.425848 -119.044601 221 495ft 0kts
11-Jan-18 19:53 35.425846 -119.044603 221 495ft 0kts
11-Jan-18 19:54 35.429152 -119.050369 316 552ft 79kts
11-Jan-18 19:55 35.439935 -119.073081 230 1605ft 93kts
11-Jan-18 19:56 35.422378 -119.096368 213 2689ft 99kts
11-Jan-18 19:57 35.399746 -119.111208 202 3920ft 81kts
11-Jan-18 19:58 35.379064 -119.120961 197 5005ft 79kts
11-Jan-18 19:59 35.358283 -119.131466 201 5989ft 83kts
11-Jan-18 20:00 35.338263 -119.144901 205 6964ft 82kts
11-Jan-18 20:01 35.319683 -119.161563 216 7850ft 85kts
11-Jan-18 20:02 35.299793 -119.178982 218 8668ft 93kts
11-Jan-18 20:03 35.276474 -119.191589 210 9339ft 93kts
11-Jan-18 20:04 35.252030 -119.202252 207 9919ft 94kts
11-Jan-18 20:05 35.223492 -119.215104 209 10135ft 118kts
11-Jan-18 20:06 35.187407 -119.222825 186 10117ft 127kts
11-Jan-18 20:07 35.152431 -119.226881 205 10104ft 135kts
11-Jan-18 20:08 35.116196 -119.241372 210 9861ft 134kts
11-Jan-18 20:09 35.087445 -119.256623 212 10053ft 118kts
11-Jan-18 20:10 35.056093 -119.273791 213 10112ft 127kts
11-Jan-18 20:11 35.023530 -119.294552 218 10095ft 134kts
11-Jan-18 20:12 34.991597 -119.318945 220 10091ft 126kts
11-Jan-18 20:13 34.960447 -119.340808 220 10174ft 132kts
11-Jan-18 20:14 34.936809 -119.375156 224 10154ft 128kts
11-Jan-18 20:15 34.911006 -119.405471 228 10186ft 129kts
11-Jan-18 20:16 34.889357 -119.438794 232 10225ft 129kts
11-Jan-18 20:17 34.861018 -119.464594 214 10229ft 129kts
11-Jan-18 20:18 34.831483 -119.489482 215 10230ft 129kts
11-Jan-18 20:19 34.802362 -119.514653 215 10232ft 129kts
11-Jan-18 20:20 34.772880 -119.540341 217 10227ft 130kts
11-Jan-18 20:21 34.743852 -119.565853 217 10230ft 129kts
11-Jan-18 20:22 34.714897 -119.591319 217 10228ft 129kts
11-Jan-18 20:23 34.685723 -119.616998 217 10223ft 131kts
11-Jan-18 20:24 34.656099 -119.643035 216 10224ft 132kts
11-Jan-18 20:25 34.626487 -119.668864 215 10173ft 136kts
11-Jan-18 20:26 34.594442 -119.696832 215 9727ft 145kts
11-Jan-18 20:27 34.565378 -119.722241 215 9136ft 123kts
11-Jan-18 20:28 34.535382 -119.748499 216 8244ft 138kts
11-Jan-18 20:29 34.504400 -119.775590 216 7348ft 138kts
11-Jan-18 20:30 34.476447 -119.798006 186 6177ft 114kts
11-Jan-18 20:31 34.480003 -119.808605 76 4746ft 104kts
11-Jan-18 20:32 34.454790 -119.805441 198 2911ft 123kts
11-Jan-18 20:33 34.429507 -119.826258 265 586ft 120kts
11-Jan-18 20:34 34.427735 -119.850264 229 14ft 9kts
11-Jan-18 20:35 34.426696 -119.851734 144 14ft 11kts
11-Jan-18 20:36 34.426565 -119.846709 74 14ft 6kts
11-Jan-18 20:37 34.426620 -119.842417 87 14ft 16kts
11-Jan-18 20:38 34.426539 -119.838313 149 14ft 7kts
11-Jan-18 20:39 34.423891 -119.836940 137 14ft 0kts

Navigation Log

Ident Type
1. KBFL Airport
2. KSBA Airport